createdAt,value
2018-01-30T00:01:01.918Z,101496.62
2018-01-30T00:03:29.394Z,101500.24
2018-01-30T00:05:56.866Z,101501.84
2018-01-30T00:08:24.366Z,101501.97
2018-01-30T00:10:51.823Z,101502.91
2018-01-30T00:13:19.300Z,101486.69
2018-01-30T00:15:46.785Z,101485.56
2018-01-30T00:18:14.260Z,101495.77
2018-01-30T00:20:41.719Z,101501.78
2018-01-30T00:23:09.194Z,101498.97
2018-01-30T00:25:36.649Z,101506.47
2018-01-30T00:28:04.122Z,101507.09
2018-01-30T00:30:31.583Z,101510.85
2018-01-30T00:32:59.058Z,101506.32
2018-01-30T00:35:26.519Z,101503.82
2018-01-30T00:37:53.996Z,101508.47
2018-01-30T00:40:21.459Z,101509.77
2018-01-30T00:42:48.950Z,101509.83
2018-01-30T00:45:16.410Z,101518.24
2018-01-30T00:47:43.898Z,101525.03
2018-01-30T00:50:11.354Z,101525.46
2018-01-30T00:52:38.826Z,101522.70
2018-01-30T00:55:06.291Z,101521.78
2018-01-30T00:57:33.746Z,101531.92
2018-01-30T01:00:01.227Z,101537.37
2018-01-30T01:02:28.678Z,101532.77
2018-01-30T01:04:56.152Z,101528.22
2018-01-30T01:07:23.698Z,101533.05
2018-01-30T01:09:51.182Z,101535.98
2018-01-30T01:12:18.650Z,101539.59
2018-01-30T01:14:46.135Z,101541.30
2018-01-30T01:17:13.606Z,101551.98
2018-01-30T01:19:41.091Z,101545.81
2018-01-30T01:22:08.560Z,101548.72
2018-01-30T01:24:36.046Z,101552.83
2018-01-30T01:27:03.502Z,101553.38
2018-01-30T01:29:30.978Z,101547.86
2018-01-30T01:31:58.434Z,101554.45
2018-01-30T01:34:25.908Z,101553.95
2018-01-30T01:36:53.396Z,101556.44
2018-01-30T01:39:20.875Z,101556.16
2018-01-30T01:41:48.326Z,101564.63
2018-01-30T01:44:15.798Z,101569.42
2018-01-30T01:46:43.252Z,101564.73
2018-01-30T01:49:10.787Z,101557.84
2018-01-30T01:51:38.254Z,101552.45
2018-01-30T01:54:05.730Z,101548.84
2018-01-30T01:56:33.195Z,101544.06
2018-01-30T01:59:00.681Z,101548.94
2018-01-30T02:01:28.151Z,101542.39
2018-01-30T02:03:55.631Z,101541.27
2018-01-30T02:06:23.096Z,101533.91
2018-01-30T02:08:50.575Z,101524.63
2018-01-30T02:11:18.022Z,101522.00
2018-01-30T02:13:45.507Z,101526.44
2018-01-30T02:16:12.971Z,101522.15
2018-01-30T02:18:40.430Z,101521.55
2018-01-30T02:21:07.915Z,101528.40
2018-01-30T02:23:35.371Z,101526.45
2018-01-30T02:26:02.856Z,101518.94
2018-01-30T02:28:30.314Z,101522.19
2018-01-30T02:30:57.787Z,101523.70
2018-01-30T02:33:25.251Z,101531.50
2018-01-30T02:35:52.723Z,101530.43
2018-01-30T02:38:20.183Z,101529.06
2018-01-30T02:40:47.664Z,101523.89
2018-01-30T02:43:15.126Z,101522.86
2018-01-30T02:45:42.609Z,101516.26
2018-01-30T02:48:10.075Z,101517.87
2018-01-30T02:50:37.567Z,101516.38
2018-01-30T02:53:05.032Z,101524.86
2018-01-30T02:55:32.505Z,101521.83
2018-01-30T02:57:59.967Z,101516.65
2018-01-30T03:00:27.447Z,101518.77
2018-01-30T03:02:54.902Z,101519.16
2018-01-30T03:05:22.386Z,101509.83
2018-01-30T03:07:49.842Z,101513.05
2018-01-30T03:10:17.324Z,101501.27
2018-01-30T03:12:44.834Z,101504.87
2018-01-30T03:15:12.286Z,101502.16
2018-01-30T03:17:39.747Z,101504.50
2018-01-30T03:22:36.432Z,101507.13
2018-01-30T03:25:03.919Z,101500.09
2018-01-30T03:27:31.380Z,101505.70
2018-01-30T03:29:58.887Z,101506.97
2018-01-30T03:32:26.351Z,101512.20
2018-01-30T03:34:53.830Z,101508.75
2018-01-30T03:37:21.298Z,101509.74
2018-01-30T03:39:48.756Z,101512.02
2018-01-30T03:42:16.234Z,101502.20
2018-01-30T03:44:43.705Z,101511.48
2018-01-30T03:47:11.179Z,101506.50
2018-01-30T03:49:38.638Z,101511.02
2018-01-30T03:52:06.119Z,101509.91
2018-01-30T03:54:33.579Z,101511.41
2018-01-30T03:57:01.066Z,101517.88
2018-01-30T03:59:28.530Z,101508.31
2018-01-30T04:01:56.010Z,101525.53
2018-01-30T04:04:23.470Z,101519.97
2018-01-30T04:06:50.946Z,101531.99
2018-01-30T04:09:19.327Z,101535.61
2018-01-30T04:11:46.806Z,101534.34
2018-01-30T04:14:14.262Z,101540.56
2018-01-30T04:16:41.761Z,101542.36
2018-01-30T04:19:09.226Z,101542.94
2018-01-30T04:21:36.762Z,101542.05
2018-01-30T04:24:04.268Z,101537.25
2018-01-30T04:26:31.781Z,101543.16
2018-01-30T04:28:59.255Z,101536.52
2018-01-30T04:31:26.738Z,101541.27
2018-01-30T04:33:54.195Z,101538.53
2018-01-30T04:36:21.675Z,101541.56
2018-01-30T04:38:49.138Z,101548.86
2018-01-30T04:41:16.614Z,101543.45
2018-01-30T04:43:44.079Z,101536.43
2018-01-30T04:46:11.555Z,101537.05
2018-01-30T04:48:39.018Z,101540.42
2018-01-30T04:51:06.493Z,101543.66
2018-01-30T04:53:33.955Z,101541.89
2018-01-30T04:56:01.434Z,101546.13
2018-01-30T04:58:28.890Z,101538.32
2018-01-30T05:00:56.387Z,101552.32
2018-01-30T05:03:23.850Z,101554.53
2018-01-30T05:05:51.302Z,101551.00
2018-01-30T05:08:18.799Z,101540.98
2018-01-30T05:10:46.257Z,101542.11
2018-01-30T05:13:13.737Z,101549.81
2018-01-30T05:15:41.202Z,101551.30
2018-01-30T05:18:08.676Z,101547.94
2018-01-30T05:20:36.138Z,101547.53
2018-01-30T05:23:03.614Z,101542.62
2018-01-30T05:25:31.078Z,101535.16
2018-01-30T05:27:58.566Z,101535.44
2018-01-30T05:30:26.032Z,101542.67
2018-01-30T05:32:53.507Z,101540.70
2018-01-30T05:35:20.978Z,101531.36
2018-01-30T05:37:48.458Z,101519.95
2018-01-30T05:40:15.921Z,101524.07
2018-01-30T05:42:43.406Z,101520.03
2018-01-30T05:45:10.872Z,101521.58
2018-01-30T05:47:38.356Z,101528.23
2018-01-30T05:50:05.860Z,101542.73
2018-01-30T05:52:33.379Z,101542.20
2018-01-30T05:55:00.819Z,101546.63
2018-01-30T05:57:28.303Z,101559.69
2018-01-30T05:59:55.770Z,101553.44
2018-01-30T06:02:27.974Z,101554.47
2018-01-30T06:04:55.437Z,101564.02
2018-01-30T06:07:22.916Z,101567.70
2018-01-30T06:09:50.374Z,101571.12
2018-01-30T06:12:17.855Z,101573.89
2018-01-30T06:14:45.322Z,101584.92
2018-01-30T06:17:12.808Z,101588.37
2018-01-30T06:19:40.281Z,101584.08
2018-01-30T06:22:07.774Z,101596.82
2018-01-30T06:24:35.234Z,101587.65
2018-01-30T06:27:02.724Z,101587.98
2018-01-30T06:29:30.255Z,101583.58
2018-01-30T06:31:57.716Z,101580.52
2018-01-30T06:34:25.255Z,101579.52
2018-01-30T06:36:52.715Z,101574.19
2018-01-30T06:39:20.199Z,101574.14
2018-01-30T06:41:47.658Z,101552.20
2018-01-30T06:44:15.138Z,101546.05
2018-01-30T06:46:42.613Z,101541.52
2018-01-30T06:49:10.098Z,101540.67
2018-01-30T06:51:37.591Z,101534.70
2018-01-30T06:54:05.075Z,101545.46
2018-01-30T06:56:32.545Z,101542.52
2018-01-30T06:59:00.029Z,101544.02
2018-01-30T07:01:27.491Z,101557.27
2018-01-30T07:03:54.966Z,101561.72
2018-01-30T07:06:22.427Z,101557.06
2018-01-30T07:08:49.909Z,101562.83
2018-01-30T07:11:17.379Z,101560.20
2018-01-30T07:13:44.855Z,101561.80
2018-01-30T07:16:12.307Z,101570.75
2018-01-30T07:18:39.786Z,101570.85
2018-01-30T07:21:07.242Z,101579.45
2018-01-30T07:23:34.723Z,101576.77
2018-01-30T07:26:02.183Z,101573.88
2018-01-30T07:28:29.669Z,101587.20
2018-01-30T07:30:57.127Z,101593.08
2018-01-30T07:33:24.599Z,101593.95
2018-01-30T07:35:52.054Z,101586.19
2018-01-30T07:38:19.547Z,101591.72
2018-01-30T07:40:47.021Z,101601.42
2018-01-30T07:43:14.511Z,101598.28
2018-01-30T07:45:41.970Z,101597.47
2018-01-30T07:48:09.463Z,101599.13
2018-01-30T07:50:36.919Z,101603.56
2018-01-30T07:53:05.370Z,101600.70
2018-01-30T07:55:32.851Z,101594.49
2018-01-30T07:58:00.307Z,101600.33
2018-01-30T08:00:27.798Z,101602.44
2018-01-30T08:02:55.255Z,101610.61
2018-01-30T08:05:22.730Z,101601.36
2018-01-30T08:07:50.196Z,101608.47
2018-01-30T08:10:17.703Z,101606.51
2018-01-30T08:12:45.166Z,101600.04
2018-01-30T08:15:12.651Z,101599.14
2018-01-30T08:17:40.112Z,101595.27
2018-01-30T08:20:07.596Z,101602.14
2018-01-30T08:22:35.055Z,101606.92
2018-01-30T08:25:02.530Z,101607.92
2018-01-30T08:27:29.990Z,101606.56
2018-01-30T08:29:57.472Z,101608.69
2018-01-30T08:32:24.943Z,101605.62
2018-01-30T08:34:52.426Z,101608.00
2018-01-30T08:37:19.882Z,101610.76
2018-01-30T08:39:47.454Z,101601.23
2018-01-30T08:42:14.915Z,101601.80
2018-01-30T08:44:42.382Z,101602.61
2018-01-30T08:47:09.847Z,101604.14
2018-01-30T08:49:37.365Z,101599.61
2018-01-30T08:52:04.851Z,101607.64
2018-01-30T08:54:32.359Z,101599.73
2018-01-30T08:56:59.814Z,101600.78
2018-01-30T08:59:27.307Z,101591.19
2018-01-30T09:01:54.762Z,101595.53
2018-01-30T09:04:22.242Z,101600.52
2018-01-30T09:06:49.723Z,101602.16
2018-01-30T09:09:17.202Z,101592.92
2018-01-30T09:11:44.673Z,101591.76
2018-01-30T09:14:12.143Z,101594.66
2018-01-30T09:16:39.603Z,101589.48
2018-01-30T09:19:07.070Z,101584.17
2018-01-30T09:21:34.563Z,101580.38
2018-01-30T09:24:02.045Z,101578.06
2018-01-30T09:26:29.530Z,101584.19
2018-01-30T09:28:56.987Z,101582.55
2018-01-30T09:31:24.462Z,101587.23
2018-01-30T09:33:51.944Z,101582.46
2018-01-30T09:36:19.439Z,101576.52
2018-01-30T09:38:46.906Z,101582.39
2018-01-30T09:41:14.413Z,101583.59
2018-01-30T09:46:15.766Z,101585.73
2018-01-30T09:48:43.219Z,101588.36
2018-01-30T09:51:10.686Z,101589.19
2018-01-30T09:53:38.175Z,101575.42
2018-01-30T09:56:05.669Z,101580.25
2018-01-30T09:58:33.127Z,101578.82
2018-01-30T10:01:00.635Z,101578.63
2018-01-30T10:03:28.089Z,101581.25
2018-01-30T10:05:55.599Z,101590.61
2018-01-30T10:08:23.048Z,101592.98
2018-01-30T10:10:50.522Z,101585.69
2018-01-30T10:13:17.985Z,101588.66
2018-01-30T10:15:45.463Z,101589.99
2018-01-30T10:18:12.918Z,101580.61
2018-01-30T10:20:40.399Z,101586.14
2018-01-30T10:23:07.870Z,101589.19
2018-01-30T10:25:35.347Z,101587.69
2018-01-30T10:28:02.807Z,101576.27
2018-01-30T10:30:30.279Z,101578.80
2018-01-30T10:32:57.732Z,101583.81
2018-01-30T10:35:25.198Z,101578.56
2018-01-30T10:37:53.212Z,101583.17
2018-01-30T10:40:20.718Z,101569.46
2018-01-30T10:42:48.171Z,101570.13
2018-01-30T10:45:15.695Z,101565.87
2018-01-30T10:47:43.231Z,101559.72
2018-01-30T10:50:10.703Z,101560.56
2018-01-30T10:52:38.174Z,101556.42
2018-01-30T10:55:05.623Z,101554.09
2018-01-30T10:57:33.110Z,101550.71
2018-01-30T11:00:00.583Z,101541.50
2018-01-30T11:02:28.082Z,101530.36
2018-01-30T11:04:55.596Z,101526.04
2018-01-30T11:07:23.042Z,101520.54
2018-01-30T11:09:50.498Z,101523.56
2018-01-30T11:12:17.967Z,101514.91
2018-01-30T11:14:45.423Z,101509.78
2018-01-30T11:17:12.894Z,101509.99
2018-01-30T11:19:40.347Z,101495.45
2018-01-30T11:22:07.855Z,101491.48
2018-01-30T11:24:35.301Z,101485.77
2018-01-30T11:27:02.767Z,101477.14
2018-01-30T11:29:30.214Z,101479.94
2018-01-30T11:31:57.684Z,101476.81
2018-01-30T11:34:25.163Z,101470.17
2018-01-30T11:36:52.639Z,101473.39
2018-01-30T11:39:20.099Z,101466.81
2018-01-30T11:41:47.569Z,101466.11
2018-01-30T11:44:15.026Z,101462.16
2018-01-30T11:46:43.111Z,101456.33
2018-01-30T11:49:10.567Z,101453.41
2018-01-30T11:51:38.044Z,101458.41
2018-01-30T11:54:05.490Z,101448.42
2018-01-30T11:56:32.970Z,101448.52
2018-01-30T11:59:00.414Z,101455.73
2018-01-30T12:01:27.887Z,101454.84
2018-01-30T12:03:55.444Z,101457.05
2018-01-30T12:06:22.895Z,101447.70
2018-01-30T12:08:50.381Z,101461.72
2018-01-30T12:11:17.843Z,101452.59
2018-01-30T12:13:45.320Z,101443.41
2018-01-30T12:16:12.770Z,101450.24
2018-01-30T12:18:40.250Z,101444.59
2018-01-30T12:21:07.705Z,101440.34
2018-01-30T12:23:35.177Z,101436.78
2018-01-30T12:26:02.691Z,101434.13
2018-01-30T12:28:30.171Z,101434.65
2018-01-30T12:30:57.630Z,101434.55
2018-01-30T12:33:25.103Z,101437.22
2018-01-30T12:35:53.655Z,101431.70
2018-01-30T12:38:21.143Z,101430.97
2018-01-30T12:40:48.601Z,101433.62
2018-01-30T12:43:16.076Z,101433.13
2018-01-30T12:45:43.531Z,101420.28
2018-01-30T12:48:11.003Z,101408.32
2018-01-30T12:50:38.463Z,101408.24
2018-01-30T12:53:05.939Z,101398.28
2018-01-30T12:55:33.399Z,101398.98
2018-01-30T12:58:00.864Z,101397.81
2018-01-30T13:00:28.321Z,101392.95
2018-01-30T13:02:55.791Z,101390.00
2018-01-30T13:05:23.244Z,101384.31
2018-01-30T13:07:50.715Z,101386.55
2018-01-30T13:10:18.175Z,101380.44
2018-01-30T13:12:45.647Z,101376.30
2018-01-30T13:15:13.098Z,101377.08
2018-01-30T13:17:40.571Z,101370.06
2018-01-30T13:20:08.027Z,101357.87
2018-01-30T13:22:35.513Z,101353.69
2018-01-30T13:25:02.974Z,101356.14
2018-01-30T13:27:30.455Z,101358.84
2018-01-30T13:29:58.760Z,101345.97
2018-01-30T13:32:26.296Z,101348.84
2018-01-30T13:34:53.812Z,101339.91
2018-01-30T13:37:21.266Z,101343.62
2018-01-30T13:39:48.739Z,101341.89
2018-01-30T13:42:16.196Z,101339.11
2018-01-30T13:44:43.691Z,101332.88
2018-01-30T13:47:11.155Z,101329.52
2018-01-30T13:49:38.635Z,101326.25
2018-01-30T13:52:06.151Z,101326.58
2018-01-30T13:54:33.629Z,101321.09
2018-01-30T13:57:01.091Z,101317.73
2018-01-30T13:59:28.558Z,101318.53
2018-01-30T14:01:56.022Z,101307.69
2018-01-30T14:04:23.500Z,101309.29
2018-01-30T14:06:50.998Z,101303.85
2018-01-30T14:09:18.468Z,101301.30
2018-01-30T14:11:45.926Z,101296.84
2018-01-30T14:14:13.407Z,101292.00
2018-01-30T14:16:40.886Z,101293.80
2018-01-30T14:19:08.363Z,101292.10
2018-01-30T14:21:35.855Z,101285.49
2018-01-30T14:24:03.337Z,101281.00
2018-01-30T14:26:50.243Z,101278.39
2018-01-30T14:29:17.819Z,101282.77
2018-01-30T14:31:45.319Z,101278.77
2018-01-30T14:34:12.838Z,101285.63
2018-01-30T14:36:40.409Z,101284.59
2018-01-30T14:39:07.894Z,101283.86
2018-01-30T14:41:35.443Z,101273.91
2018-01-30T14:44:02.966Z,101267.87
2018-01-30T14:46:30.422Z,101269.06
2018-01-30T14:48:57.998Z,101265.77
2018-01-30T14:51:25.503Z,101261.83
2018-01-30T14:53:52.978Z,101251.77
2018-01-30T14:56:20.434Z,101252.50
2018-01-30T14:58:47.914Z,101252.48
2018-01-30T15:01:35.494Z,101244.47
2018-01-30T15:04:02.990Z,101236.42
2018-01-30T15:06:30.539Z,101238.92
2018-01-30T15:08:58.114Z,101238.17
2018-01-30T15:11:25.579Z,101236.02
2018-01-30T15:13:53.051Z,101236.28
2018-01-30T15:16:20.541Z,101236.45
2018-01-30T15:18:48.239Z,101235.79
2018-01-30T15:21:15.741Z,101228.56
2018-01-30T15:23:43.301Z,101218.19
2018-01-30T15:26:10.771Z,101218.66
2018-01-30T15:28:38.282Z,101216.04
2018-01-30T15:31:05.763Z,101208.67
2018-01-30T15:33:33.242Z,101212.18
2018-01-30T15:36:00.823Z,101208.77
2018-01-30T15:38:28.297Z,101200.33
2018-01-30T15:40:55.911Z,101204.55
2018-01-30T15:43:23.399Z,101203.45
2018-01-30T15:45:50.946Z,101201.41
2018-01-30T15:48:18.410Z,101198.61
2018-01-30T15:51:02.426Z,101200.80
2018-01-30T15:53:31.834Z,101190.65
2018-01-30T15:55:59.316Z,101188.17
2018-01-30T15:58:26.767Z,101185.30
2018-01-30T16:00:54.261Z,101189.27
2018-01-30T16:03:21.758Z,101185.74
2018-01-30T16:05:49.269Z,101178.98
2018-01-30T16:08:16.811Z,101179.30
2018-01-30T16:10:44.287Z,101168.53
2018-01-30T16:13:11.771Z,101173.27
2018-01-30T16:15:39.362Z,101170.06
2018-01-30T16:18:06.949Z,101164.77
2018-01-30T16:20:34.444Z,101162.98
2018-01-30T16:23:01.937Z,101162.20
2018-01-30T16:25:29.426Z,101157.94
2018-01-30T16:27:56.899Z,101158.72
2018-01-30T16:30:24.455Z,101152.17
2018-01-30T16:32:51.911Z,101146.70
2018-01-30T16:35:19.385Z,101142.91
2018-01-30T16:37:46.842Z,101141.48
2018-01-30T16:40:14.339Z,101134.02
2018-01-30T16:42:41.854Z,101134.16
2018-01-30T16:45:09.350Z,101139.82
2018-01-30T16:47:53.572Z,101131.59
2018-01-30T16:50:27.630Z,101125.70
2018-01-30T16:52:55.155Z,101119.38
2018-01-30T16:55:22.668Z,101117.32
2018-01-30T16:57:50.183Z,101116.06
2018-01-30T17:00:17.628Z,101116.88
2018-01-30T17:02:45.155Z,101106.91
2018-01-30T17:05:12.612Z,101102.03
2018-01-30T17:07:40.153Z,101099.85
2018-01-30T17:10:07.746Z,101099.47
2018-01-30T17:12:35.271Z,101102.78
2018-01-30T17:15:03.167Z,101103.46
2018-01-30T17:17:30.727Z,101106.24
2018-01-30T17:19:58.308Z,101092.89
2018-01-30T17:25:05.266Z,101082.96
2018-01-30T17:30:18.851Z,101076.27
2018-01-30T17:32:59.830Z,101070.92
2018-01-30T17:38:13.452Z,101071.95
2018-01-30T17:49:54.396Z,101047.56
2018-01-30T17:52:46.224Z,101051.09
2018-01-30T17:55:13.686Z,101044.69
2018-01-30T17:57:41.178Z,101042.05
2018-01-30T18:00:08.630Z,101036.38
2018-01-30T18:02:36.109Z,101027.16
2018-01-30T18:05:03.566Z,101024.58
2018-01-30T18:07:31.048Z,101026.78
2018-01-30T18:09:58.508Z,101022.89
2018-01-30T18:12:25.992Z,101017.20
2018-01-30T18:14:53.475Z,101021.65
2018-01-30T18:17:20.955Z,101021.47
2018-01-30T18:19:48.426Z,101021.78
2018-01-30T18:22:15.910Z,101019.91
2018-01-30T18:24:43.366Z,101017.85
2018-01-30T18:27:10.846Z,101017.44
2018-01-30T18:29:38.294Z,101014.42
2018-01-30T18:32:05.763Z,101008.41
2018-01-30T18:34:33.211Z,101006.58
2018-01-30T18:37:01.292Z,101011.36
2018-01-30T18:39:28.899Z,101011.77
2018-01-30T18:41:56.468Z,101006.56
2018-01-30T18:44:24.022Z,100994.64
2018-01-30T18:46:51.664Z,100991.11
2018-01-30T18:49:19.202Z,100986.27
2018-01-30T18:51:46.749Z,100988.83
2018-01-30T18:54:14.371Z,100993.41
2018-01-30T18:56:42.620Z,100988.64
2018-01-30T18:59:10.161Z,100990.09
2018-01-30T19:10:39.663Z,100971.73
2018-01-30T19:13:07.206Z,100968.52
2018-01-30T19:18:27.299Z,100964.05
2018-01-30T19:26:59.838Z,100945.42
2018-01-30T19:35:42.538Z,100918.92
2018-01-30T19:38:12.220Z,100909.81
2018-01-30T19:40:48.865Z,100899.42
2018-01-30T19:45:57.325Z,100886.95
2018-01-30T19:48:25.789Z,100892.53
2018-01-30T19:50:53.351Z,100888.67
2018-01-30T19:53:23.724Z,100888.53
2018-01-30T19:58:38.033Z,100889.34
2018-01-30T20:03:46.899Z,100879.89
2018-01-30T20:06:14.355Z,100870.20
2018-01-30T20:14:36.569Z,100859.81
2018-01-30T20:19:56.712Z,100847.62
2018-01-30T20:22:24.174Z,100848.44
2018-01-30T20:24:51.658Z,100851.10
2018-01-30T20:27:19.115Z,100848.86
2018-01-30T20:29:46.607Z,100843.75
2018-01-30T20:32:14.066Z,100840.69
2018-01-30T20:34:41.560Z,100833.95
2018-01-30T20:37:14.548Z,100837.53
2018-01-30T20:39:42.027Z,100831.20
2018-01-30T20:42:09.487Z,100828.94
2018-01-30T20:44:36.963Z,100832.38
2018-01-30T20:47:04.434Z,100823.66
2018-01-30T20:49:31.926Z,100823.42
2018-01-30T20:51:59.382Z,100821.75
2018-01-30T20:54:26.881Z,100828.34
2018-01-30T20:56:54.346Z,100828.10
2018-01-30T20:59:21.883Z,100812.88
2018-01-30T21:01:49.362Z,100821.03
2018-01-30T21:04:16.847Z,100814.38
2018-01-30T21:06:44.334Z,100803.54
2018-01-30T21:09:11.884Z,100797.27
2018-01-30T21:11:39.352Z,100794.66
2018-01-30T21:14:06.830Z,100790.27
2018-01-30T21:16:34.298Z,100780.58
2018-01-30T21:19:01.773Z,100772.63
2018-01-30T21:21:29.235Z,100769.67
2018-01-30T21:23:56.753Z,100775.98
2018-01-30T21:26:24.206Z,100760.50
2018-01-30T21:28:51.677Z,100762.14
2018-01-30T21:31:19.155Z,100755.72
2018-01-30T21:33:46.624Z,100756.88
2018-01-30T21:36:14.107Z,100755.30
2018-01-30T21:38:41.562Z,100747.55
2018-01-30T21:41:09.039Z,100747.78
2018-01-30T21:43:36.495Z,100742.33
2018-01-30T21:46:03.975Z,100744.47
2018-01-30T21:48:31.447Z,100735.59
2018-01-30T21:50:58.930Z,100733.48
2018-01-30T21:53:26.391Z,100732.98
2018-01-30T21:55:53.868Z,100733.62
2018-01-30T21:58:21.395Z,100723.77
2018-01-30T22:00:48.917Z,100729.05
2018-01-30T22:03:16.354Z,100716.31
2018-01-30T22:05:43.827Z,100714.64
2018-01-30T22:08:11.393Z,100711.36
2018-01-30T22:10:38.794Z,100704.59
2018-01-30T22:13:06.250Z,100698.86
2018-01-30T22:15:33.732Z,100696.98
2018-01-30T22:18:01.182Z,100694.70
2018-01-30T22:20:28.659Z,100687.64
2018-01-30T22:22:56.114Z,100679.30
2018-01-30T22:25:23.598Z,100673.66
2018-01-30T22:27:51.054Z,100670.48
2018-01-30T22:30:18.539Z,100666.25
2018-01-30T22:32:45.999Z,100660.98
2018-01-30T22:35:13.479Z,100667.53
2018-01-30T22:37:40.941Z,100663.63
2018-01-30T22:40:08.419Z,100650.98
2018-01-30T22:42:35.879Z,100650.45
2018-01-30T22:45:03.370Z,100643.28
